Tacoma — WCX9244 — position and weather

sailwx.info

Track history (hours):
 
Tides and Currents Weather Stations Pressure Air Temp Water Temp Dewpoint Dewpoint Depression Visibility Wind Speed Wind Dir Waves Ship Positions

Tacoma

Owner: WASHINGTON, STATE OF; DOT, OLYMPIA, WA. More information available from US FCC via Universal Licensing System and Coast Guard Vessel Documentation Center.

Last reported at 2018-Apr-20 04:35 UTC. Time now 2018-Apr-20 05:10 UTC.
Position N 47°36' W 122°20'.

Length 148 m; draft 5.8 m.

Type: Passenger vessel. MMSI: 366772760.

Date/timePositionNaut miles runAvg speedWind from/ knotsBaromVisibWave heightAir tempDewpointWater temp
2018-Apr-20 04:35N 47°36' W 122°20'1 9.5
2018-Apr-20 04:30N 47°36' W 122°22'612.3
2018-Apr-20 04:00N 47°37' W 122°31'3 6.6
2018-Apr-20 03:30N 47°36' W 122°26'4 7.6
2018-Apr-20 02:59N 47°36' W 122°20'613.3
2018-Apr-20 02:30N 47°37' W 122°30'1 2.2
2018-Apr-20 02:00N 47°36' W 122°29'611.4
2018-Apr-20 01:31N 47°36' W 122°20'3 5.7
2018-Apr-20 01:00N 47°37' W 122°25'4 8.1
2018-Apr-20 00:30N 47°37' W 122°31'4 7.3
2018-Apr-20 00:01N 47°36' W 122°25'3 6.8
2018-Apr-19 23:30N 47°36' W 122°20'510.8
2018-Apr-19 23:01N 47°36' W 122°28'2 3.3
2018-Apr-19 22:31N 47°37' W 122°30'713.3
2018-Apr-19 22:01N 47°36' W 122°21'1 3.0
2018-Apr-19 21:30N 47°36' W 122°23'510.7
2018-Apr-19 21:01N 47°37' W 122°31'3 5.6
2018-Apr-19 20:30N 47°36' W 122°27'5 9.1
2018-Apr-19 20:00N 47°36' W 122°20'510.2
2018-Apr-19 19:31N 47°36' W 122°28'2 4.1
2018-Apr-19 19:00N 47°37' W 122°31'612.7
2018-Apr-19 18:30N 47°36' W 122°21'1 1.2
2018-Apr-19 18:00N 47°36' W 122°20'612.5
2018-Apr-19 17:30N 47°37' W 122°30'0 0.3
2018-Apr-19 17:01N 47°37' W 122°30'612.1
2018-Apr-19 16:30N 47°36' W 122°20'4 8.5
2018-Apr-19 16:00N 47°37' W 122°27'3 5.6
2018-Apr-19 15:30N 47°37' W 122°31'611.6
2018-Apr-19 15:00N 47°36' W 122°22'0 0.9
2018-Apr-19 14:30N 47°36' W 122°21'612.3
2018-Apr-19 14:00N 47°37' W 122°31'2 4.1
2018-Apr-19 13:31N 47°36' W 122°28'510.5
2018-Apr-19 13:00N 47°36' W 122°20'510.7
2018-Apr-19 12:30N 47°36' W 122°28'2 3.8
2018-Apr-19 12:00N 47°37' W 122°31'0 0.0
2018-Apr-19 11:30N 47°37' W 122°31'0 0.0
2018-Apr-19 11:00N 47°37' W 122°31'0 0.0
2018-Apr-19 10:30N 47°37' W 122°31'0 0.0
2018-Apr-19 10:00N 47°37' W 122°31'0 0.0
2018-Apr-19 09:30N 47°37' W 122°31'0 0.0
2018-Apr-19 09:00N 47°37' W 122°31'0 0.0
2018-Apr-19 08:30N 47°37' W 122°31'0 0.0
2018-Apr-19 08:00N 47°37' W 122°31'0 0.0
2018-Apr-19 07:30N 47°37' W 122°31'0 0.0
2018-Apr-19 07:00N 47°37' W 122°31'0 0.0
2018-Apr-19 06:30N 47°37' W 122°31'0 0.0
2018-Apr-19 06:00N 47°37' W 122°31'1 1.1
2018-Apr-19 05:31N 47°37' W 122°30'612.6
2018-Apr-19 05:00N 47°36' W 122°20'1 2.0
2018-Apr-19 04:31N 47°36' W 122°22'611.9
2018-Apr-19 04:00N 47°37' W 122°31'3 6.6
2018-Apr-19 03:30N 47°36' W 122°26'4 7.6
2018-Apr-19 03:00N 47°36' W 122°20'510.2
2018-Apr-19 02:31N 47°36' W 122°28'2 3.8
2018-Apr-19 02:01N 47°37' W 122°30'711.3
2018-Apr-19 01:24N 47°36' W 122°20'2 4.9
2018-Apr-19 01:01N 47°37' W 122°23'510.0
2018-Apr-19 00:30N 47°37' W 122°31'4 7.6
2018-Apr-19 00:00N 47°36' W 122°25'3 5.3
2018-Apr-18 23:24N 47°36' W 122°20'615.9
2018-Apr-18 23:01N 47°37' W 122°30'1 1.4
2018-Apr-18 22:30N 47°37' W 122°30'711.1
2018-Apr-18 21:54N 47°36' W 122°20'2 3.9
2018-Apr-18 21:30N 47°36' W 122°23'510.8
2018-Apr-18 21:00N 47°37' W 122°31'2 4.4
2018-Apr-18 20:30N 47°36' W 122°28'5 7.7
2018-Apr-18 19:51N 47°36' W 122°20'515.3
2018-Apr-18 19:31N 47°36' W 122°28'2 4.3
2018-Apr-18 19:01N 47°37' W 122°31'611.5
2018-Apr-18 18:31N 47°36' W 122°22'1 1.9
2018-Apr-18 17:56N 47°36' W 122°21'614.6
2018-Apr-18 17:30N 47°37' W 122°30'1 1.1
2018-Apr-18 17:01N 47°36' W 122°29'611.5
2018-Apr-18 16:30N 47°36' W 122°20'510.8
2018-Apr-18 16:00N 47°36' W 122°28'2 3.5
2018-Apr-18 15:30N 47°37' W 122°31'612.4
2018-Apr-18 15:01N 47°36' W 122°22'1 1.5
2018-Apr-18 14:30N 47°36' W 122°23'510.8
2018-Apr-18 14:00N 47°37' W 122°31'3 5.3
2018-Apr-18 13:31N 47°36' W 122°27'5 7.5
2018-Apr-18 12:54N 47°36' W 122°20'512.5
2018-Apr-18 12:30N 47°36' W 122°28'2 4.8
2018-Apr-18 12:00N 47°37' W 122°31'0 0.0
2018-Apr-18 11:30N 47°37' W 122°31'0 0.0
2018-Apr-18 11:00N 47°37' W 122°31'0 0.0
2018-Apr-18 10:30N 47°37' W 122°31'0 0.0
2018-Apr-18 10:00N 47°37' W 122°31'0 0.0
2018-Apr-18 09:30N 47°37' W 122°31'2 3.2
2018-Apr-18 09:01N 47°36' W 122°29'611.0
2018-Apr-18 08:30N 47°36' W 122°21'713.7
2018-Apr-18 08:00N 47°37' W 122°31'4 7.2
2018-Apr-18 07:30N 47°36' W 122°25'2 4.0
2018-Apr-18 07:00N 47°36' W 122°23'511.0
2018-Apr-18 06:30N 47°37' W 122°31'612.3
2018-Apr-18 06:00N 47°36' W 122°22'1 1.5
2018-Apr-18 05:30N 47°36' W 122°20'713.5
2018-Apr-18 05:00N 47°37' W 122°30'3 5.6
2018-Apr-18 04:31N 47°36' W 122°26'4 5.8
2018-Apr-18 03:50N 47°36' W 122°20'515.4
2018-Apr-18 03:31N 47°36' W 122°28'2 4.0
2018-Apr-18 03:01N 47°37' W 122°30'7 7.9
2018-Apr-18 02:09N 47°36' W 122°20'214.4
2018-Apr-18 02:00N 47°36' W 122°23'5 9.8
2018-Apr-18 01:30N 47°37' W 122°31'3 6.0
2018-Apr-18 01:01N 47°36' W 122°26'4 5.5
2018-Apr-18 00:17N 47°36' W 122°21'414.6
2018-Apr-18 00:00N 47°37' W 122°27'3 5.5
2018-Apr-17 23:30N 47°37' W 122°31'612.3
2018-Apr-17 23:00N 47°36' W 122°22'0 0.9
2018-Apr-17 22:30N 47°36' W 122°21'713.1
2018-Apr-17 22:00N 47°37' W 122°31'3 5.3
2018-Apr-17 21:31N 47°36' W 122°27'4 5.8
2018-Apr-17 20:44N 47°36' W 122°20'416.4
2018-Apr-17 20:30N 47°37' W 122°26'3 6.5
2018-Apr-17 20:00N 47°37' W 122°31'611.0
2018-Apr-17 19:30N 47°36' W 122°23'1 2.1
2018-Apr-17 19:00N 47°36' W 122°21'713.2
2018-Apr-17 18:30N 47°37' W 122°31'2 3.4
2018-Apr-17 18:00N 47°36' W 122°29'5 6.6
2018-Apr-17 17:11N 47°36' W 122°21'316.9
2018-Apr-17 17:00N 47°37' W 122°25'4 7.7
2018-Apr-17 16:30N 47°37' W 122°31'5 9.7
2018-Apr-17 16:00N 47°36' W 122°24'2 3.6
2018-Apr-17 15:30N 47°36' W 122°21'713.3
2018-Apr-17 15:00N 47°37' W 122°31'2 3.7
2018-Apr-17 14:30N 47°36' W 122°28'5 8.6
2018-Apr-17 13:54N 47°36' W 122°20'513.5
2018-Apr-17 13:30N 47°36' W 122°28'2 3.8
2018-Apr-17 13:00N 47°37' W 122°31'713.6
2018-Apr-17 12:30N 47°36' W 122°21'3 7.0
2018-Apr-17 12:01N 47°36' W 122°26'3 6.8
2018-Apr-17 11:31N 47°37' W 122°31'0 0.0
2018-Apr-17 11:00N 47°37' W 122°31'0 0.0
2018-Apr-17 10:30N 47°37' W 122°31'0 0.0
2018-Apr-17 10:00N 47°37' W 122°31'0 0.0
2018-Apr-17 09:30N 47°37' W 122°31'2 4.9
2018-Apr-17 09:00N 47°36' W 122°27'4 8.9
2018-Apr-17 08:30N 47°36' W 122°21'713.5
2018-Apr-17 08:00N 47°37' W 122°31'4 8.5
2018-Apr-17 07:30N 47°36' W 122°24'1 1.3
2018-Apr-17 07:01N 47°36' W 122°24'5 9.7
2018-Apr-17 06:30N 47°37' W 122°31'612.4
2018-Apr-17 06:00N 47°36' W 122°21'0 0.9
2018-Apr-17 05:30N 47°36' W 122°21'713.7
2018-Apr-17 05:00N 47°37' W 122°30'3 6.2
2018-Apr-17 04:30N 47°36' W 122°26'4 5.7
2018-Apr-17 03:50N 47°36' W 122°20'515.4
2018-Apr-17 03:30N 47°37' W 122°28'2 3.5
2018-Apr-17 03:01N 47°37' W 122°30'713.2
2018-Apr-17 02:30N 47°36' W 122°21'3 5.3
2018-Apr-17 02:00N 47°37' W 122°24'4 8.6
2018-Apr-17 01:31N 47°37' W 122°31'3 5.9
2018-Apr-17 01:00N 47°36' W 122°27'4 7.7
2018-Apr-17 00:28N 47°36' W 122°20'3 7.6
2018-Apr-17 00:00N 47°37' W 122°25'3 6.9
2018-Apr-16 23:30N 47°37' W 122°31'5 9.5
2018-Apr-16 23:00N 47°36' W 122°24'2 3.9
2018-Apr-16 22:29N 47°36' W 122°21'714.4
2018-Apr-16 22:00N 47°37' W 122°31'1 1.6
2018-Apr-16 21:30N 47°37' W 122°30'6 8.1
2018-Apr-16 20:45N 47°36' W 122°21'415.4
2018-Apr-16 20:30N 47°37' W 122°26'3 6.4
2018-Apr-16 20:01N 47°37' W 122°31'611.4
2018-Apr-16 19:30N 47°36' W 122°22'1 1.1
2018-Apr-16 19:00N 47°36' W 122°21'612.5
2018-Apr-16 18:31N 47°37' W 122°31'2 3.5
2018-Apr-16 18:00N 47°36' W 122°28'5 6.2
2018-Apr-16 17:09N 47°36' W 122°21'215.7
2018-Apr-16 17:00N 47°37' W 122°24'5 9.2
2018-Apr-16 16:30N 47°37' W 122°31'4 8.8
2018-Apr-16 16:01N 47°36' W 122°24'3 4.9
2018-Apr-16 15:29N 47°36' W 122°21'713.7
2018-Apr-16 15:00N 47°37' W 122°30'1 2.1
2018-Apr-16 14:31N 47°36' W 122°29'6 9.3
2018-Apr-16 13:52N 47°36' W 122°20'515.3
2018-Apr-16 13:30N 47°36' W 122°28'2 3.2
2018-Apr-16 13:00N 47°37' W 122°30'7 9.2
2018-Apr-16 12:16N 47°36' W 122°21'415.3
2018-Apr-16 12:00N 47°37' W 122°27'3 5.6
2018-Apr-16 11:30N 47°37' W 122°31'0 0.0
2018-Apr-16 11:00N 47°37' W 122°31'0 0.0
2018-Apr-16 10:30N 47°37' W 122°31'0 0.0
2018-Apr-16 10:00N 47°37' W 122°31'0 0.0
2018-Apr-16 09:30N 47°37' W 122°31'0 0.0
2018-Apr-16 09:00N 47°37' W 122°31'0 0.0
2018-Apr-16 08:30N 47°37' W 122°31'0 0.0
2018-Apr-16 08:00N 47°37' W 122°31'0 0.0
2018-Apr-16 07:30N 47°37' W 122°31'0 0.0
2018-Apr-16 07:01N 47°37' W 122°31'0 0.0
2018-Apr-16 06:31N 47°37' W 122°31'3 5.3
2018-Apr-16 06:00N 47°36' W 122°27'4 6.6
2018-Apr-16 05:20N 47°36' W 122°20'412.1
2018-Apr-16 05:01N 47°37' W 122°26'3 5.7
2018-Apr-16 04:30N 47°37' W 122°30'713.6
2018-Apr-16 04:00N 47°36' W 122°20'2 4.3
2018-Apr-16 03:30N 47°36' W 122°24'5 9.5
2018-Apr-16 03:00N 47°37' W 122°31'4 7.8
2018-Apr-16 02:30N 47°36' W 122°25'3 5.9
2018-Apr-16 02:00N 47°36' W 122°20'714.0
2018-Apr-16 01:31N 47°37' W 122°30'0 0.6
2018-Apr-16 01:00N 47°37' W 122°30'6 8.5
2018-Apr-16 00:15N 47°36' W 122°20'415.0
2018-Apr-16 00:00N 47°36' W 122°26'3 6.9
2018-Apr-15 23:30N 47°37' W 122°31'612.8
2018-Apr-15 23:01N 47°36' W 122°21'1 1.5
2018-Apr-15 22:31N 47°36' W 122°22'611.1
2018-Apr-15 22:00N 47°37' W 122°31'0 0.0
2018-Apr-15 21:30N 47°37' W 122°31'0 0.0
2018-Apr-15 21:00N 47°37' W 122°31'0 0.0
2018-Apr-15 20:30N 47°37' W 122°31'0 0.0
2018-Apr-15 20:00N 47°37' W 122°31'0 0.0
2018-Apr-15 19:30N 47°37' W 122°31'0 0.0
2018-Apr-15 19:00N 47°37' W 122°31'0 0.0
2018-Apr-15 18:30N 47°37' W 122°31'0 0.0
2018-Apr-15 18:00N 47°37' W 122°31'0 0.0
2018-Apr-15 17:30N 47°37' W 122°31'0 0.0
2018-Apr-15 17:00N 47°37' W 122°31'0 0.0
2018-Apr-15 16:30N 47°37' W 122°31'0 0.0
2018-Apr-15 16:00N 47°37' W 122°31'0 0.0
2018-Apr-15 15:30N 47°37' W 122°31'0 0.0
2018-Apr-15 15:00N 47°37' W 122°31'0 0.0
2018-Apr-15 14:30N 47°37' W 122°31'0 0.0
2018-Apr-15 14:00N 47°37' W 122°31'0 0.0
2018-Apr-15 13:30N 47°37' W 122°31'0 0.0
2018-Apr-15 13:00N 47°37' W 122°31'0 0.0
2018-Apr-15 12:30N 47°37' W 122°31'0 0.0
2018-Apr-15 12:00N 47°37' W 122°31'0 0.0
2018-Apr-15 11:30N 47°37' W 122°31'0 0.0
2018-Apr-15 11:00N 47°37' W 122°31'0 0.0
2018-Apr-15 10:30N 47°37' W 122°31'0 0.0
2018-Apr-15 10:00N 47°37' W 122°31'0 0.0
2018-Apr-15 09:30N 47°37' W 122°31'0 0.0
2018-Apr-15 09:00N 47°37' W 122°31'0 0.0
2018-Apr-15 08:30N 47°37' W 122°31'0 0.0
2018-Apr-15 08:00N 47°37' W 122°31'0 0.0
2018-Apr-15 07:30N 47°37' W 122°31'0 0.0
2018-Apr-15 07:00N 47°37' W 122°31'0 0.0
2018-Apr-15 06:30N 47°37' W 122°31'0 0.0
2018-Apr-15 06:00N 47°37' W 122°31'0 0.0
2018-Apr-15 05:30N 47°37' W 122°31'0 0.0
2018-Apr-15 05:00N 47°37' W 122°31'0 0.0
2018-Apr-15 04:30N 47°37' W 122°31'0 0.0
2018-Apr-15 04:00N 47°37' W 122°31'0 0.0
2018-Apr-15 03:30N 47°37' W 122°31'0 0.0
2018-Apr-15 03:00N 47°37' W 122°31'0 0.0
2018-Apr-15 02:30N 47°37' W 122°31'0 0.0
2018-Apr-15 02:00N 47°37' W 122°31'0 0.0
2018-Apr-15 01:30N 47°37' W 122°31'0 0.0
2018-Apr-15 01:00N 47°37' W 122°31'0 0.0
2018-Apr-15 00:30N 47°37' W 122°31'0 0.0
2018-Apr-15 00:00N 47°37' W 122°31'0 0.0
2018-Apr-14 23:30N 47°37' W 122°31'0 0.0
2018-Apr-14 23:00N 47°37' W 122°31'0 0.0
2018-Apr-14 22:30N 47°37' W 122°31'0 0.0
2018-Apr-14 22:00N 47°37' W 122°31'0 0.0
2018-Apr-14 21:30N 47°37' W 122°31'0 0.4
2018-Apr-14 21:01N 47°37' W 122°30'611.1
2018-Apr-14 20:31N 47°33' W 122°25'4 8.4
2018-Apr-14 20:00N 47°29' W 122°24'2 3.6
2018-Apr-14 19:31N 47°30' W 122°26'1 2.3
2018-Apr-14 19:01N 47°31' W 122°27'4 7.4
2018-Apr-14 18:30N 47°35' W 122°27'4 8.6
2018-Apr-14 18:00N 47°35' W 122°21'0 0.0
2018-Apr-14 17:30N 47°35' W 122°21'0 0.0
2018-Apr-14 17:00N 47°35' W 122°21'1 1.1
2018-Apr-14 16:30N 47°36' W 122°22'714.0
2018-Apr-14 16:00N 47°29' W 122°25'1 1.6
2018-Apr-14 15:30N 47°29' W 122°25'3 5.3
2018-Apr-14 15:00N 47°31' W 122°26'612.9
2018-Apr-14 14:30N 47°37' W 122°30'0 1.0
2018-Apr-14 14:00N 47°37' W 122°31'0 0.0
2018-Apr-14 13:30N 47°37' W 122°31'0 0.0
2018-Apr-14 13:00N 47°37' W 122°31'0 0.0
2018-Apr-14 12:31N 47°37' W 122°31'0 0.0
2018-Apr-14 12:00N 47°37' W 122°31'0 0.0
2018-Apr-14 11:30N 47°37' W 122°31'0 0.0
2018-Apr-14 11:00N 47°37' W 122°31'0 0.0
2018-Apr-14 10:30N 47°37' W 122°31'0 0.0
2018-Apr-14 10:00N 47°37' W 122°31'0 0.0
2018-Apr-14 09:30N 47°37' W 122°31'0 0.0
2018-Apr-14 09:00N 47°37' W 122°31'0 0.0
2018-Apr-14 08:30N 47°37' W 122°31'0 0.0
2018-Apr-14 08:00N 47°37' W 122°31'0 0.0
2018-Apr-14 07:30N 47°37' W 122°31'0 0.0
2018-Apr-14 07:01N 47°37' W 122°31'0 0.0
2018-Apr-14 06:30N 47°37' W 122°31'0 0.0
2018-Apr-14 06:00N 47°37' W 122°31'0 0.0
2018-Apr-14 05:30N 47°37' W 122°31'0 0.0
2018-Apr-14 05:00N 47°37' W 122°31'0 0.0
2018-Apr-14 04:30N 47°37' W 122°31'0 0.0
2018-Apr-14 04:00N 47°37' W 122°31'0 0.0
2018-Apr-14 03:31N 47°37' W 122°31'0 0.0
2018-Apr-14 03:00N 47°37' W 122°31'0 0.0
2018-Apr-14 02:30N 47°37' W 122°31'0 0.0
2018-Apr-14 02:00N 47°37' W 122°31'0 0.0
2018-Apr-14 01:30N 47°37' W 122°31'0 0.0
2018-Apr-14 01:01N 47°37' W 122°31'0 0.0
2018-Apr-14 00:30N 47°37' W 122°31'0 0.0
2018-Apr-14 00:00N 47°37' W 122°31'0 0.0
2018-Apr-13 23:30N 47°37' W 122°31'0 0.0
2018-Apr-13 23:00N 47°37' W 122°31'0 0.0
2018-Apr-13 22:30N 47°37' W 122°31'0 0.0
2018-Apr-13 22:00N 47°37' W 122°31'0 0.0
2018-Apr-13 21:30N 47°37' W 122°31'0 0.0
2018-Apr-13 21:00N 47°37' W 122°31'0 0.0
2018-Apr-13 20:30N 47°37' W 122°31'0 0.0
2018-Apr-13 20:00N 47°37' W 122°31'0 0.0
2018-Apr-13 19:30N 47°37' W 122°31'0 0.0
2018-Apr-13 19:00N 47°37' W 122°31'0 0.0
2018-Apr-13 18:30N 47°37' W 122°31'0 0.0
2018-Apr-13 18:00N 47°37' W 122°31'0 0.0
2018-Apr-13 17:30N 47°37' W 122°31'0 0.0
2018-Apr-13 17:00N 47°37' W 122°31'0 0.0
2018-Apr-13 16:30N 47°37' W 122°31'0 0.0
2018-Apr-13 16:00N 47°37' W 122°31'0 0.0
2018-Apr-13 15:30N 47°37' W 122°31'0 0.0
2018-Apr-13 15:00N 47°37' W 122°31'0 0.0
2018-Apr-13 14:30N 47°37' W 122°31'0 0.0
2018-Apr-13 14:00N 47°37' W 122°31'0 0.0
2018-Apr-13 13:30N 47°37' W 122°31'0 0.0
2018-Apr-13 13:00N 47°37' W 122°31'0 0.0
2018-Apr-13 12:30N 47°37' W 122°31'0 0.0
2018-Apr-13 12:00N 47°37' W 122°31'0 0.0
2018-Apr-13 11:30N 47°37' W 122°31'0 0.0
2018-Apr-13 11:00N 47°37' W 122°31'0 0.0
2018-Apr-13 10:30N 47°37' W 122°31'0 0.0
2018-Apr-13 10:00N 47°37' W 122°31'0 0.0
2018-Apr-13 09:30N 47°37' W 122°31'0 0.0
2018-Apr-13 09:00N 47°37' W 122°31'0 0.0
2018-Apr-13 08:30N 47°37' W 122°31'0 0.0
2018-Apr-13 08:00N 47°37' W 122°31'0 0.0
2018-Apr-13 07:30N 47°37' W 122°31'0 0.0
2018-Apr-13 07:00N 47°37' W 122°31'0 0.0
2018-Apr-13 06:30N 47°37' W 122°31'0 0.0
2018-Apr-13 06:00N 47°37' W 122°31'0 0.0
2018-Apr-13 05:30N 47°37' W 122°31'0 0.0
2018-Apr-13 05:00N 47°37' W 122°31'0 0.0
2018-Apr-13 04:30N 47°37' W 122°31'0 0.0
2018-Apr-13 04:00N 47°37' W 122°31'0 0.0
2018-Apr-13 03:30N 47°37' W 122°31'0 0.0
2018-Apr-13 03:00N 47°37' W 122°31'0 0.0
2018-Apr-13 02:30N 47°37' W 122°31'0 0.0
2018-Apr-13 02:00N 47°37' W 122°31'0 0.0
2018-Apr-13 01:30N 47°37' W 122°31'0 0.0
2018-Apr-13 01:00N 47°37' W 122°31'0 0.0
2018-Apr-13 00:30N 47°37' W 122°31'0 0.0
2018-Apr-13 00:00N 47°37' W 122°31'0 0.0
2018-Apr-12 23:30N 47°37' W 122°31'0 0.0
2018-Apr-12 23:00N 47°37' W 122°31'0 0.0
2018-Apr-12 22:30N 47°37' W 122°31'0 0.0
2018-Apr-12 22:00N 47°37' W 122°31'0 0.0
2018-Apr-12 21:30N 47°37' W 122°31'4 7.7
2018-Apr-12 21:00N 47°34' W 122°28'3 5.0
2018-Apr-12 20:30N 47°31' W 122°27'5 9.1
2018-Apr-12 20:00N 47°27' W 122°26'4 8.3
2018-Apr-12 19:30N 47°24' W 122°22'3 6.1
2018-Apr-12 19:01N 47°22' W 122°26'2 4.2
2018-Apr-12 18:31N 47°23' W 122°23'3 5.1
2018-Apr-12 18:00N 47°25' W 122°24'0 0.5
2018-Apr-12 17:31N 47°25' W 122°24'2 4.7
2018-Apr-12 17:00N 47°28' W 122°25'2 4.5
2018-Apr-12 16:30N 47°25' W 122°25'2 4.6
2018-Apr-12 16:00N 47°28' W 122°25'1 1.2
2018-Apr-12 15:31N 47°28' W 122°25'713.4
2018-Apr-12 15:00N 47°35' W 122°28'3 6.1
2018-Apr-12 14:30N 47°37' W 122°31'0 0.0
2018-Apr-12 14:00N 47°37' W 122°31'0 0.0
2018-Apr-12 13:31N 47°37' W 122°31'0 0.0
2018-Apr-12 13:00N 47°37' W 122°31'0 0.0
2018-Apr-12 12:30N 47°37' W 122°31'0 0.0
2018-Apr-12 12:01N 47°37' W 122°31'0 0.0
2018-Apr-12 11:30N 47°37' W 122°31'0 0.0
2018-Apr-12 11:00N 47°37' W 122°31'0 0.0
2018-Apr-12 10:31N 47°37' W 122°31'0 0.0
2018-Apr-12 10:00N 47°37' W 122°31'0 0.0
2018-Apr-12 09:31N 47°37' W 122°31'0 0.0
2018-Apr-12 09:00N 47°37' W 122°31'0 0.0
2018-Apr-12 08:31N 47°37' W 122°31'0 0.0
2018-Apr-12 08:01N 47°37' W 122°31'0 0.0
2018-Apr-12 07:30N 47°37' W 122°31'0 0.0
2018-Apr-12 07:00N 47°37' W 122°31'0 0.0
2018-Apr-12 06:30N 47°37' W 122°31'0 0.0
2018-Apr-12 06:00N 47°37' W 122°31'0 0.0
2018-Apr-12 05:31N 47°37' W 122°31'0 0.0
2018-Apr-12 05:01N 47°37' W 122°31'0 0.0
2018-Apr-12 04:31N 47°37' W 122°31'0 0.0
2018-Apr-12 04:00N 47°37' W 122°31'0 0.0
2018-Apr-12 03:31N 47°37' W 122°31'0 0.0
2018-Apr-12 03:00N 47°37' W 122°31'0 0.0
2018-Apr-12 02:31N 47°37' W 122°31'0 0.0
2018-Apr-12 02:01N 47°37' W 122°31'0 0.0
2018-Apr-12 01:31N 47°37' W 122°31'0 0.0
2018-Apr-12 01:00N 47°37' W 122°31'0 0.0
2018-Apr-12 00:30N 47°37' W 122°31'0 0.0
2018-Apr-12 00:00N 47°37' W 122°31'0 0.0
2018-Apr-11 23:31N 47°37' W 122°31'0 0.0
2018-Apr-11 23:01N 47°37' W 122°31'0 0.0
2018-Apr-11 22:31N 47°37' W 122°31'0 0.0
2018-Apr-11 22:01N 47°37' W 122°31'0 0.0
2018-Apr-11 21:30N 47°37' W 122°31'0 0.0
2018-Apr-11 21:00N 47°37' W 122°31'0 0.0
2018-Apr-11 20:30N 47°37' W 122°31'0 0.0
2018-Apr-11 20:00N 47°37' W 122°31'0 0.0
2018-Apr-11 19:31N 47°37' W 122°31'0 0.0
2018-Apr-11 19:00N 47°37' W 122°31'0 0.0
2018-Apr-11 18:30N 47°37' W 122°31'0 0.0
2018-Apr-11 18:00N 47°37' W 122°31'0 0.0
2018-Apr-11 17:30N 47°37' W 122°31'0 0.0
2018-Apr-11 17:00N 47°37' W 122°31'0 0.0
2018-Apr-11 16:30N 47°37' W 122°31'0 0.0
2018-Apr-11 16:00N 47°37' W 122°31'0 0.0
2018-Apr-11 15:30N 47°37' W 122°31'0 0.0
2018-Apr-11 15:00N 47°37' W 122°31'0 0.0
2018-Apr-11 14:30N 47°37' W 122°31'0 0.0
2018-Apr-11 14:00N 47°37' W 122°31'0 0.0
2018-Apr-11 13:30N 47°37' W 122°31'0 0.0
2018-Apr-11 13:00N 47°37' W 122°31'0 0.0
2018-Apr-11 12:30N 47°37' W 122°31'0 0.0
2018-Apr-11 12:00N 47°37' W 122°31'0 0.0
2018-Apr-11 11:31N 47°37' W 122°31'0 0.0
2018-Apr-11 11:00N 47°37' W 122°31'0 0.0
2018-Apr-11 10:30N 47°37' W 122°31'0 0.0
2018-Apr-11 10:00N 47°37' W 122°31'0 0.0
2018-Apr-11 09:30N 47°37' W 122°31'0 0.0
2018-Apr-11 09:00N 47°37' W 122°31'0 0.0
2018-Apr-11 08:30N 47°37' W 122°31'0 0.0
2018-Apr-11 08:00N 47°37' W 122°31'0 0.0
2018-Apr-11 07:30N 47°37' W 122°31'0 0.0
2018-Apr-11 07:00N 47°37' W 122°31'0 0.0
2018-Apr-11 06:30N 47°37' W 122°31'0 0.0
2018-Apr-11 06:01N 47°37' W 122°31'0 0.0
2018-Apr-11 05:30N 47°37' W 122°31'0 0.0
2018-Apr-11 05:00N 47°37' W 122°31'0 0.0
2018-Apr-11 04:30N 47°37' W 122°31'0 0.0
2018-Apr-11 04:00N 47°37' W 122°31'0 0.0
2018-Apr-11 03:30N 47°37' W 122°31'0 0.0
2018-Apr-11 03:00N 47°37' W 122°31'0 0.0
2018-Apr-11 02:30N 47°37' W 122°31'0 0.0
2018-Apr-11 02:00N 47°37' W 122°31'0 0.0
2018-Apr-11 01:31N 47°37' W 122°31'0 0.0
2018-Apr-11 01:00N 47°37' W 122°31'0 0.0
2018-Apr-11 00:30N 47°37' W 122°31'0 0.0
2018-Apr-11 00:00N 47°37' W 122°31'0 0.0
2018-Apr-10 23:31N 47°37' W 122°31'0 0.0
2018-Apr-10 23:00N 47°37' W 122°31'0 0.0
2018-Apr-10 22:30N 47°37' W 122°31'0 0.0
2018-Apr-10 22:01N 47°37' W 122°31'0 0.0
2018-Apr-10 21:30N 47°37' W 122°31'0 0.0
2018-Apr-10 21:01N 47°37' W 122°31'0 0.0
2018-Apr-10 20:30N 47°37' W 122°31'1 1.6
2018-Apr-10 20:00N 47°37' W 122°30'612.6
2018-Apr-10 19:30N 47°31' W 122°25'4 7.2
2018-Apr-10 19:00N 47°28' W 122°24'2 4.5
2018-Apr-10 18:30N 47°26' W 122°22'2 4.7
2018-Apr-10 18:00N 47°24' W 122°21'2 4.3
2018-Apr-10 17:30N 47°22' W 122°22'2 3.2
2018-Apr-10 17:00N 47°21' W 122°24'4 7.5
2018-Apr-10 16:30N 47°19' W 122°29'510.2
2018-Apr-10 16:01N 47°22' W 122°23'611.1
2018-Apr-10 15:30N 47°28' W 122°25'917.5
2018-Apr-10 15:01N 47°36' W 122°29'2 3.5
2018-Apr-10 14:30N 47°37' W 122°31'0 0.0
2018-Apr-10 14:00N 47°37' W 122°31'0 0.0
2018-Apr-10 13:30N 47°37' W 122°31'0 0.0
2018-Apr-10 13:00N 47°37' W 122°31'0 0.0
2018-Apr-10 12:30N 47°37' W 122°31'0 0.0
2018-Apr-10 12:00N 47°37' W 122°31'0 0.0
2018-Apr-10 11:30N 47°37' W 122°31'0 0.0
2018-Apr-10 11:00N 47°37' W 122°31'0 0.0
2018-Apr-10 10:30N 47°37' W 122°31'0 0.0
2018-Apr-10 10:00N 47°37' W 122°31'0 0.0
2018-Apr-10 09:30N 47°37' W 122°31'0 0.0
2018-Apr-10 09:00N 47°37' W 122°31'0 0.0
2018-Apr-10 08:30N 47°37' W 122°31'0 0.0
2018-Apr-10 08:00N 47°37' W 122°31'0 0.0
2018-Apr-10 07:30N 47°37' W 122°31'0 0.0
2018-Apr-10 07:00N 47°37' W 122°31'0 0.0
2018-Apr-10 06:30N 47°37' W 122°31'0 0.0
2018-Apr-10 06:00N 47°37' W 122°31'0 0.0
2018-Apr-10 05:30N 47°37' W 122°31'0 0.0
2018-Apr-10 05:00N 47°37' W 122°31'  
Track history (hours):
 
Tides and Currents Weather Stations Pressure Air Temp Water Temp Dewpoint Dewpoint Depression Visibility Wind Speed Wind Dir Waves Ship Positions

Tacoma

Owner: WASHINGTON, STATE OF; DOT, OLYMPIA, WA. More information available from US FCC via Universal Licensing System and Coast Guard Vessel Documentation Center.

Last reported at 2018-Apr-20 04:35 UTC. Time now 2018-Apr-20 05:10 UTC.
Position N 47°36' W 122°20'.

Length 148 m; draft 5.8 m.

Type: Passenger vessel. MMSI: 366772760.

Date/timePositionNaut miles runAvg speedWind from/ knotsBaromVisibWave heightAir tempDewpointWater temp
2018-Apr-20 04:35N 47°36' W 122°20'1 9.5
2018-Apr-20 04:30N 47°36' W 122°22'612.3
2018-Apr-20 04:00N 47°37' W 122°31'3 6.6
2018-Apr-20 03:30N 47°36' W 122°26'4 7.6
2018-Apr-20 02:59N 47°36' W 122°20'613.3
2018-Apr-20 02:30N 47°37' W 122°30'1 2.2
2018-Apr-20 02:00N 47°36' W 122°29'611.4
2018-Apr-20 01:31N 47°36' W 122°20'3 5.7
2018-Apr-20 01:00N 47°37' W 122°25'4 8.1
2018-Apr-20 00:30N 47°37' W 122°31'4 7.3
2018-Apr-20 00:01N 47°36' W 122°25'3 6.8
2018-Apr-19 23:30N 47°36' W 122°20'510.8
2018-Apr-19 23:01N 47°36' W 122°28'2 3.3
2018-Apr-19 22:31N 47°37' W 122°30'713.3
2018-Apr-19 22:01N 47°36' W 122°21'1 3.0
2018-Apr-19 21:30N 47°36' W 122°23'510.7
2018-Apr-19 21:01N 47°37' W 122°31'3 5.6
2018-Apr-19 20:30N 47°36' W 122°27'5 9.1
2018-Apr-19 20:00N 47°36' W 122°20'510.2
2018-Apr-19 19:31N 47°36' W 122°28'2 4.1
2018-Apr-19 19:00N 47°37' W 122°31'612.7
2018-Apr-19 18:30N 47°36' W 122°21'1 1.2
2018-Apr-19 18:00N 47°36' W 122°20'612.5
2018-Apr-19 17:30N 47°37' W 122°30'0 0.3
2018-Apr-19 17:01N 47°37' W 122°30'612.1
2018-Apr-19 16:30N 47°36' W 122°20'4 8.5
2018-Apr-19 16:00N 47°37' W 122°27'3 5.6
2018-Apr-19 15:30N 47°37' W 122°31'611.6
2018-Apr-19 15:00N 47°36' W 122°22'0 0.9
2018-Apr-19 14:30N 47°36' W 122°21'612.3
2018-Apr-19 14:00N 47°37' W 122°31'2 4.1
2018-Apr-19 13:31N 47°36' W 122°28'510.5
2018-Apr-19 13:00N 47°36' W 122°20'510.7
2018-Apr-19 12:30N 47°36' W 122°28'2 3.8
2018-Apr-19 12:00N 47°37' W 122°31'0 0.0
2018-Apr-19 11:30N 47°37' W 122°31'0 0.0
2018-Apr-19 11:00N 47°37' W 122°31'0 0.0
2018-Apr-19 10:30N 47°37' W 122°31'0 0.0
2018-Apr-19 10:00N 47°37' W 122°31'0 0.0
2018-Apr-19 09:30N 47°37' W 122°31'0 0.0
2018-Apr-19 09:00N 47°37' W 122°31'0 0.0
2018-Apr-19 08:30N 47°37' W 122°31'0 0.0
2018-Apr-19 08:00N 47°37' W 122°31'0 0.0
2018-Apr-19 07:30N 47°37' W 122°31'0 0.0
2018-Apr-19 07:00N 47°37' W 122°31'0 0.0
2018-Apr-19 06:30N 47°37' W 122°31'0 0.0
2018-Apr-19 06:00N 47°37' W 122°31'1 1.1
2018-Apr-19 05:31N 47°37' W 122°30'612.6
2018-Apr-19 05:00N 47°36' W 122°20'1 2.0
2018-Apr-19 04:31N 47°36' W 122°22'611.9
2018-Apr-19 04:00N 47°37' W 122°31'3 6.6
2018-Apr-19 03:30N 47°36' W 122°26'4 7.6
2018-Apr-19 03:00N 47°36' W 122°20'510.2
2018-Apr-19 02:31N 47°36' W 122°28'2 3.8
2018-Apr-19 02:01N 47°37' W 122°30'711.3
2018-Apr-19 01:24N 47°36' W 122°20'2 4.9
2018-Apr-19 01:01N 47°37' W 122°23'510.0
2018-Apr-19 00:30N 47°37' W 122°31'4 7.6
2018-Apr-19 00:00N 47°36' W 122°25'3 5.3
2018-Apr-18 23:24N 47°36' W 122°20'615.9
2018-Apr-18 23:01N 47°37' W 122°30'1 1.4
2018-Apr-18 22:30N 47°37' W 122°30'711.1
2018-Apr-18 21:54N 47°36' W 122°20'2 3.9
2018-Apr-18 21:30N 47°36' W 122°23'510.8
2018-Apr-18 21:00N 47°37' W 122°31'2 4.4
2018-Apr-18 20:30N 47°36' W 122°28'5 7.7
2018-Apr-18 19:51N 47°36' W 122°20'515.3
2018-Apr-18 19:31N 47°36' W 122°28'2 4.3
2018-Apr-18 19:01N 47°37' W 122°31'611.5
2018-Apr-18 18:31N 47°36' W 122°22'1 1.9
2018-Apr-18 17:56N 47°36' W 122°21'614.6
2018-Apr-18 17:30N 47°37' W 122°30'1 1.1
2018-Apr-18 17:01N 47°36' W 122°29'611.5
2018-Apr-18 16:30N 47°36' W 122°20'510.8
2018-Apr-18 16:00N 47°36' W 122°28'2 3.5
2018-Apr-18 15:30N 47°37' W 122°31'612.4
2018-Apr-18 15:01N 47°36' W 122°22'1 1.5
2018-Apr-18 14:30N 47°36' W 122°23'510.8
2018-Apr-18 14:00N 47°37' W 122°31'3 5.3
2018-Apr-18 13:31N 47°36' W 122°27'5 7.5
2018-Apr-18 12:54N 47°36' W 122°20'512.5
2018-Apr-18 12:30N 47°36' W 122°28'2 4.8
2018-Apr-18 12:00N 47°37' W 122°31'0 0.0
2018-Apr-18 11:30N 47°37' W 122°31'0 0.0
2018-Apr-18 11:00N 47°37' W 122°31'0 0.0
2018-Apr-18 10:30N 47°37' W 122°31'0 0.0
2018-Apr-18 10:00N 47°37' W 122°31'0 0.0
2018-Apr-18 09:30N 47°37' W 122°31'2 3.2
2018-Apr-18 09:01N 47°36' W 122°29'611.0
2018-Apr-18 08:30N 47°36' W 122°21'713.7
2018-Apr-18 08:00N 47°37' W 122°31'4 7.2
2018-Apr-18 07:30N 47°36' W 122°25'2 4.0
2018-Apr-18 07:00N 47°36' W 122°23'511.0
2018-Apr-18 06:30N 47°37' W 122°31'612.3
2018-Apr-18 06:00N 47°36' W 122°22'1 1.5
2018-Apr-18 05:30N 47°36' W 122°20'713.5
2018-Apr-18 05:00N 47°37' W 122°30'3 5.6
2018-Apr-18 04:31N 47°36' W 122°26'4 5.8
2018-Apr-18 03:50N 47°36' W 122°20'515.4
2018-Apr-18 03:31N 47°36' W 122°28'2 4.0
2018-Apr-18 03:01N 47°37' W 122°30'7 7.9
2018-Apr-18 02:09N 47°36' W 122°20'214.4
2018-Apr-18 02:00N 47°36' W 122°23'5 9.8
2018-Apr-18 01:30N 47°37' W 122°31'3 6.0
2018-Apr-18 01:01N 47°36' W 122°26'4 5.5
2018-Apr-18 00:17N 47°36' W 122°21'414.6
2018-Apr-18 00:00N 47°37' W 122°27'3 5.5
2018-Apr-17 23:30N 47°37' W 122°31'612.3
2018-Apr-17 23:00N 47°36' W 122°22'0 0.9
2018-Apr-17 22:30N 47°36' W 122°21'713.1
2018-Apr-17 22:00N 47°37' W 122°31'3 5.3
2018-Apr-17 21:31N 47°36' W 122°27'4 5.8
2018-Apr-17 20:44N 47°36' W 122°20'416.4
2018-Apr-17 20:30N 47°37' W 122°26'3 6.5
2018-Apr-17 20:00N 47°37' W 122°31'611.0
2018-Apr-17 19:30N 47°36' W 122°23'1 2.1
2018-Apr-17 19:00N 47°36' W 122°21'713.2
2018-Apr-17 18:30N 47°37' W 122°31'2 3.4
2018-Apr-17 18:00N 47°36' W 122°29'5 6.6
2018-Apr-17 17:11N 47°36' W 122°21'316.9
2018-Apr-17 17:00N 47°37' W 122°25'4 7.7
2018-Apr-17 16:30N 47°37' W 122°31'5 9.7
2018-Apr-17 16:00N 47°36' W 122°24'2 3.6
2018-Apr-17 15:30N 47°36' W 122°21'713.3
2018-Apr-17 15:00N 47°37' W 122°31'2 3.7
2018-Apr-17 14:30N 47°36' W 122°28'5 8.6
2018-Apr-17 13:54N 47°36' W 122°20'513.5
2018-Apr-17 13:30N 47°36' W 122°28'2 3.8
2018-Apr-17 13:00N 47°37' W 122°31'713.6
2018-Apr-17 12:30N 47°36' W 122°21'3 7.0
2018-Apr-17 12:01N 47°36' W 122°26'3 6.8
2018-Apr-17 11:31N 47°37' W 122°31'0 0.0
2018-Apr-17 11:00N 47°37' W 122°31'0 0.0
2018-Apr-17 10:30N 47°37' W 122°31'0 0.0
2018-Apr-17 10:00N 47°37' W 122°31'0 0.0
2018-Apr-17 09:30N 47°37' W 122°31'2 4.9
2018-Apr-17 09:00N 47°36' W 122°27'4 8.9
2018-Apr-17 08:30N 47°36' W 122°21'713.5
2018-Apr-17 08:00N 47°37' W 122°31'4 8.5
2018-Apr-17 07:30N 47°36' W 122°24'1 1.3
2018-Apr-17 07:01N 47°36' W 122°24'5 9.7
2018-Apr-17 06:30N 47°37' W 122°31'612.4
2018-Apr-17 06:00N 47°36' W 122°21'0 0.9
2018-Apr-17 05:30N 47°36' W 122°21'713.7
2018-Apr-17 05:00N 47°37' W 122°30'3 6.2
2018-Apr-17 04:30N 47°36' W 122°26'4 5.7
2018-Apr-17 03:50N 47°36' W 122°20'515.4
2018-Apr-17 03:30N 47°37' W 122°28'2 3.5
2018-Apr-17 03:01N 47°37' W 122°30'713.2
2018-Apr-17 02:30N 47°36' W 122°21'3 5.3
2018-Apr-17 02:00N 47°37' W 122°24'4 8.6
2018-Apr-17 01:31N 47°37' W 122°31'3 5.9
2018-Apr-17 01:00N 47°36' W 122°27'4 7.7
2018-Apr-17 00:28N 47°36' W 122°20'3 7.6
2018-Apr-17 00:00N 47°37' W 122°25'3 6.9
2018-Apr-16 23:30N 47°37' W 122°31'5 9.5
2018-Apr-16 23:00N 47°36' W 122°24'2 3.9
2018-Apr-16 22:29N 47°36' W 122°21'714.4
2018-Apr-16 22:00N 47°37' W 122°31'1 1.6
2018-Apr-16 21:30N 47°37' W 122°30'6 8.1
2018-Apr-16 20:45N 47°36' W 122°21'415.4
2018-Apr-16 20:30N 47°37' W 122°26'3 6.4
2018-Apr-16 20:01N 47°37' W 122°31'611.4
2018-Apr-16 19:30N 47°36' W 122°22'1 1.1
2018-Apr-16 19:00N 47°36' W 122°21'612.5
2018-Apr-16 18:31N 47°37' W 122°31'2 3.5
2018-Apr-16 18:00N 47°36' W 122°28'5 6.2
2018-Apr-16 17:09N 47°36' W 122°21'215.7
2018-Apr-16 17:00N 47°37' W 122°24'5 9.2
2018-Apr-16 16:30N 47°37' W 122°31'4 8.8
2018-Apr-16 16:01N 47°36' W 122°24'3 4.9
2018-Apr-16 15:29N 47°36' W 122°21'713.7
2018-Apr-16 15:00N 47°37' W 122°30'1 2.1
2018-Apr-16 14:31N 47°36' W 122°29'6 9.3
2018-Apr-16 13:52N 47°36' W 122°20'515.3
2018-Apr-16 13:30N 47°36' W 122°28'2 3.2
2018-Apr-16 13:00N 47°37' W 122°30'7 9.2
2018-Apr-16 12:16N 47°36' W 122°21'415.3
2018-Apr-16 12:00N 47°37' W 122°27'3 5.6
2018-Apr-16 11:30N 47°37' W 122°31'0 0.0
2018-Apr-16 11:00N 47°37' W 122°31'0 0.0
2018-Apr-16 10:30N 47°37' W 122°31'0 0.0
2018-Apr-16 10:00N 47°37' W 122°31'0 0.0
2018-Apr-16 09:30N 47°37' W 122°31'0 0.0
2018-Apr-16 09:00N 47°37' W 122°31'0 0.0
2018-Apr-16 08:30N 47°37' W 122°31'0 0.0
2018-Apr-16 08:00N 47°37' W 122°31'0 0.0
2018-Apr-16 07:30N 47°37' W 122°31'0 0.0
2018-Apr-16 07:01N 47°37' W 122°31'0 0.0
2018-Apr-16 06:31N 47°37' W 122°31'3 5.3
2018-Apr-16 06:00N 47°36' W 122°27'4 6.6
2018-Apr-16 05:20N 47°36' W 122°20'412.1
2018-Apr-16 05:01N 47°37' W 122°26'3 5.7
2018-Apr-16 04:30N 47°37' W 122°30'713.6
2018-Apr-16 04:00N 47°36' W 122°20'2 4.3
2018-Apr-16 03:30N 47°36' W 122°24'5 9.5
2018-Apr-16 03:00N 47°37' W 122°31'4 7.8
2018-Apr-16 02:30N 47°36' W 122°25'3 5.9
2018-Apr-16 02:00N 47°36' W 122°20'714.0
2018-Apr-16 01:31N 47°37' W 122°30'0 0.6
2018-Apr-16 01:00N 47°37' W 122°30'6 8.5
2018-Apr-16 00:15N 47°36' W 122°20'415.0
2018-Apr-16 00:00N 47°36' W 122°26'3 6.9
2018-Apr-15 23:30N 47°37' W 122°31'612.8
2018-Apr-15 23:01N 47°36' W 122°21'1 1.5
2018-Apr-15 22:31N 47°36' W 122°22'611.1
2018-Apr-15 22:00N 47°37' W 122°31'0 0.0
2018-Apr-15 21:30N 47°37' W 122°31'0 0.0
2018-Apr-15 21:00N 47°37' W 122°31'0 0.0
2018-Apr-15 20:30N 47°37' W 122°31'0 0.0
2018-Apr-15 20:00N 47°37' W 122°31'0 0.0
2018-Apr-15 19:30N 47°37' W 122°31'0 0.0
2018-Apr-15 19:00N 47°37' W 122°31'0 0.0
2018-Apr-15 18:30N 47°37' W 122°31'0 0.0
2018-Apr-15 18:00N 47°37' W 122°31'0 0.0
2018-Apr-15 17:30N 47°37' W 122°31'0 0.0
2018-Apr-15 17:00N 47°37' W 122°31'0 0.0
2018-Apr-15 16:30N 47°37' W 122°31'0 0.0
2018-Apr-15 16:00N 47°37' W 122°31'0 0.0
2018-Apr-15 15:30N 47°37' W 122°31'0 0.0
2018-Apr-15 15:00N 47°37' W 122°31'0 0.0
2018-Apr-15 14:30N 47°37' W 122°31'0 0.0
2018-Apr-15 14:00N 47°37' W 122°31'0 0.0
2018-Apr-15 13:30N 47°37' W 122°31'0 0.0
2018-Apr-15 13:00N 47°37' W 122°31'0 0.0
2018-Apr-15 12:30N 47°37' W 122°31'0 0.0
2018-Apr-15 12:00N 47°37' W 122°31'0 0.0
2018-Apr-15 11:30N 47°37' W 122°31'0 0.0
2018-Apr-15 11:00N 47°37' W 122°31'0 0.0
2018-Apr-15 10:30N 47°37' W 122°31'0 0.0
2018-Apr-15 10:00N 47°37' W 122°31'0 0.0
2018-Apr-15 09:30N 47°37' W 122°31'0 0.0
2018-Apr-15 09:00N 47°37' W 122°31'0 0.0
2018-Apr-15 08:30N 47°37' W 122°31'0 0.0
2018-Apr-15 08:00N 47°37' W 122°31'0 0.0
2018-Apr-15 07:30N 47°37' W 122°31'0 0.0
2018-Apr-15 07:00N 47°37' W 122°31'0 0.0
2018-Apr-15 06:30N 47°37' W 122°31'0 0.0
2018-Apr-15 06:00N 47°37' W 122°31'0 0.0
2018-Apr-15 05:30N 47°37' W 122°31'0 0.0
2018-Apr-15 05:00N 47°37' W 122°31'0 0.0
2018-Apr-15 04:30N 47°37' W 122°31'0 0.0
2018-Apr-15 04:00N 47°37' W 122°31'0 0.0
2018-Apr-15 03:30N 47°37' W 122°31'0 0.0
2018-Apr-15 03:00N 47°37' W 122°31'0 0.0
2018-Apr-15 02:30N 47°37' W 122°31'0 0.0
2018-Apr-15 02:00N 47°37' W 122°31'0 0.0
2018-Apr-15 01:30N 47°37' W 122°31'0 0.0
2018-Apr-15 01:00N 47°37' W 122°31'0 0.0
2018-Apr-15 00:30N 47°37' W 122°31'0 0.0
2018-Apr-15 00:00N 47°37' W 122°31'0 0.0
2018-Apr-14 23:30N 47°37' W 122°31'0 0.0
2018-Apr-14 23:00N 47°37' W 122°31'0 0.0
2018-Apr-14 22:30N 47°37' W 122°31'0 0.0
2018-Apr-14 22:00N 47°37' W 122°31'0 0.0
2018-Apr-14 21:30N 47°37' W 122°31'0 0.4
2018-Apr-14 21:01N 47°37' W 122°30'611.1
2018-Apr-14 20:31N 47°33' W 122°25'4 8.4
2018-Apr-14 20:00N 47°29' W 122°24'2 3.6
2018-Apr-14 19:31N 47°30' W 122°26'1 2.3
2018-Apr-14 19:01N 47°31' W 122°27'4 7.4
2018-Apr-14 18:30N 47°35' W 122°27'4 8.6
2018-Apr-14 18:00N 47°35' W 122°21'0 0.0
2018-Apr-14 17:30N 47°35' W 122°21'0 0.0
2018-Apr-14 17:00N 47°35' W 122°21'1 1.1
2018-Apr-14 16:30N 47°36' W 122°22'714.0
2018-Apr-14 16:00N 47°29' W 122°25'1 1.6
2018-Apr-14 15:30N 47°29' W 122°25'3 5.3
2018-Apr-14 15:00N 47°31' W 122°26'612.9
2018-Apr-14 14:30N 47°37' W 122°30'0 1.0
2018-Apr-14 14:00N 47°37' W 122°31'0 0.0
2018-Apr-14 13:30N 47°37' W 122°31'0 0.0
2018-Apr-14 13:00N 47°37' W 122°31'0 0.0
2018-Apr-14 12:31N 47°37' W 122°31'0 0.0
2018-Apr-14 12:00N 47°37' W 122°31'0 0.0
2018-Apr-14 11:30N 47°37' W 122°31'0 0.0
2018-Apr-14 11:00N 47°37' W 122°31'0 0.0
2018-Apr-14 10:30N 47°37' W 122°31'0 0.0
2018-Apr-14 10:00N 47°37' W 122°31'0 0.0
2018-Apr-14 09:30N 47°37' W 122°31'0 0.0
2018-Apr-14 09:00N 47°37' W 122°31'0 0.0
2018-Apr-14 08:30N 47°37' W 122°31'0 0.0
2018-Apr-14 08:00N 47°37' W 122°31'0 0.0
2018-Apr-14 07:30N 47°37' W 122°31'0 0.0
2018-Apr-14 07:01N 47°37' W 122°31'0 0.0
2018-Apr-14 06:30N 47°37' W 122°31'0 0.0
2018-Apr-14 06:00N 47°37' W 122°31'0 0.0
2018-Apr-14 05:30N 47°37' W 122°31'0 0.0
2018-Apr-14 05:00N 47°37' W 122°31'0 0.0
2018-Apr-14 04:30N 47°37' W 122°31'0 0.0
2018-Apr-14 04:00N 47°37' W 122°31'0 0.0
2018-Apr-14 03:31N 47°37' W 122°31'0 0.0
2018-Apr-14 03:00N 47°37' W 122°31'0 0.0
2018-Apr-14 02:30N 47°37' W 122°31'0 0.0
2018-Apr-14 02:00N 47°37' W 122°31'0 0.0
2018-Apr-14 01:30N 47°37' W 122°31'0 0.0
2018-Apr-14 01:01N 47°37' W 122°31'0 0.0
2018-Apr-14 00:30N 47°37' W 122°31'0 0.0
2018-Apr-14 00:00N 47°37' W 122°31'0 0.0
2018-Apr-13 23:30N 47°37' W 122°31'0 0.0
2018-Apr-13 23:00N 47°37' W 122°31'0 0.0
2018-Apr-13 22:30N 47°37' W 122°31'0 0.0
2018-Apr-13 22:00N 47°37' W 122°31'0 0.0
2018-Apr-13 21:30N 47°37' W 122°31'0 0.0
2018-Apr-13 21:00N 47°37' W 122°31'0 0.0
2018-Apr-13 20:30N 47°37' W 122°31'0 0.0
2018-Apr-13 20:00N 47°37' W 122°31'0 0.0
2018-Apr-13 19:30N 47°37' W 122°31'0 0.0
2018-Apr-13 19:00N 47°37' W 122°31'0 0.0
2018-Apr-13 18:30N 47°37' W 122°31'0 0.0
2018-Apr-13 18:00N 47°37' W 122°31'0 0.0
2018-Apr-13 17:30N 47°37' W 122°31'0 0.0
2018-Apr-13 17:00N 47°37' W 122°31'0 0.0
2018-Apr-13 16:30N 47°37' W 122°31'0 0.0
2018-Apr-13 16:00N 47°37' W 122°31'0 0.0
2018-Apr-13 15:30N 47°37' W 122°31'0 0.0
2018-Apr-13 15:00N 47°37' W 122°31'0 0.0
2018-Apr-13 14:30N 47°37' W 122°31'0 0.0
2018-Apr-13 14:00N 47°37' W 122°31'0 0.0
2018-Apr-13 13:30N 47°37' W 122°31'0 0.0
2018-Apr-13 13:00N 47°37' W 122°31'0 0.0
2018-Apr-13 12:30N 47°37' W 122°31'0 0.0
2018-Apr-13 12:00N 47°37' W 122°31'0 0.0
2018-Apr-13 11:30N 47°37' W 122°31'0 0.0
2018-Apr-13 11:00N 47°37' W 122°31'0 0.0
2018-Apr-13 10:30N 47°37' W 122°31'0 0.0
2018-Apr-13 10:00N 47°37' W 122°31'0 0.0
2018-Apr-13 09:30N 47°37' W 122°31'0 0.0
2018-Apr-13 09:00N 47°37' W 122°31'0 0.0
2018-Apr-13 08:30N 47°37' W 122°31'0 0.0
2018-Apr-13 08:00N 47°37' W 122°31'0 0.0
2018-Apr-13 07:30N 47°37' W 122°31'0 0.0
2018-Apr-13 07:00N 47°37' W 122°31'0 0.0
2018-Apr-13 06:30N 47°37' W 122°31'0 0.0
2018-Apr-13 06:00N 47°37' W 122°31'0 0.0
2018-Apr-13 05:30N 47°37' W 122°31'0 0.0
2018-Apr-13 05:00N 47°37' W 122°31'0 0.0
2018-Apr-13 04:30N 47°37' W 122°31'0 0.0
2018-Apr-13 04:00N 47°37' W 122°31'0 0.0
2018-Apr-13 03:30N 47°37' W 122°31'0 0.0
2018-Apr-13 03:00N 47°37' W 122°31'0 0.0
2018-Apr-13 02:30N 47°37' W 122°31'0 0.0
2018-Apr-13 02:00N 47°37' W 122°31'0 0.0
2018-Apr-13 01:30N 47°37' W 122°31'0 0.0
2018-Apr-13 01:00N 47°37' W 122°31'0 0.0
2018-Apr-13 00:30N 47°37' W 122°31'0 0.0
2018-Apr-13 00:00N 47°37' W 122°31'0 0.0
2018-Apr-12 23:30N 47°37' W 122°31'0 0.0
2018-Apr-12 23:00N 47°37' W 122°31'0 0.0
2018-Apr-12 22:30N 47°37' W 122°31'0 0.0
2018-Apr-12 22:00N 47°37' W 122°31'0 0.0
2018-Apr-12 21:30N 47°37' W 122°31'4 7.7
2018-Apr-12 21:00N 47°34' W 122°28'3 5.0
2018-Apr-12 20:30N 47°31' W 122°27'5 9.1
2018-Apr-12 20:00N 47°27' W 122°26'4 8.3
2018-Apr-12 19:30N 47°24' W 122°22'3 6.1
2018-Apr-12 19:01N 47°22' W 122°26'2 4.2
2018-Apr-12 18:31N 47°23' W 122°23'3 5.1
2018-Apr-12 18:00N 47°25' W 122°24'0 0.5
2018-Apr-12 17:31N 47°25' W 122°24'2 4.7
2018-Apr-12 17:00N 47°28' W 122°25'2 4.5
2018-Apr-12 16:30N 47°25' W 122°25'2 4.6
2018-Apr-12 16:00N 47°28' W 122°25'1 1.2
2018-Apr-12 15:31N 47°28' W 122°25'713.4
2018-Apr-12 15:00N 47°35' W 122°28'3 6.1
2018-Apr-12 14:30N 47°37' W 122°31'0 0.0
2018-Apr-12 14:00N 47°37' W 122°31'0 0.0
2018-Apr-12 13:31N 47°37' W 122°31'0 0.0
2018-Apr-12 13:00N 47°37' W 122°31'0 0.0
2018-Apr-12 12:30N 47°37' W 122°31'0 0.0
2018-Apr-12 12:01N 47°37' W 122°31'0 0.0
2018-Apr-12 11:30N 47°37' W 122°31'0 0.0
2018-Apr-12 11:00N 47°37' W 122°31'0 0.0
2018-Apr-12 10:31N 47°37' W 122°31'0 0.0
2018-Apr-12 10:00N 47°37' W 122°31'0 0.0
2018-Apr-12 09:31N 47°37' W 122°31'0 0.0
2018-Apr-12 09:00N 47°37' W 122°31'0 0.0
2018-Apr-12 08:31N 47°37' W 122°31'0 0.0
2018-Apr-12 08:01N 47°37' W 122°31'0 0.0
2018-Apr-12 07:30N 47°37' W 122°31'0 0.0
2018-Apr-12 07:00N 47°37' W 122°31'0 0.0
2018-Apr-12 06:30N 47°37' W 122°31'0 0.0
2018-Apr-12 06:00N 47°37' W 122°31'0 0.0
2018-Apr-12 05:31N 47°37' W 122°31'0 0.0
2018-Apr-12 05:01N 47°37' W 122°31'0 0.0
2018-Apr-12 04:31N 47°37' W 122°31'0 0.0
2018-Apr-12 04:00N 47°37' W 122°31'0 0.0
2018-Apr-12 03:31N 47°37' W 122°31'0 0.0
2018-Apr-12 03:00N 47°37' W 122°31'0 0.0
2018-Apr-12 02:31N 47°37' W 122°31'0 0.0
2018-Apr-12 02:01N 47°37' W 122°31'0 0.0
2018-Apr-12 01:31N 47°37' W 122°31'0 0.0
2018-Apr-12 01:00N 47°37' W 122°31'0 0.0
2018-Apr-12 00:30N 47°37' W 122°31'0 0.0
2018-Apr-12 00:00N 47°37' W 122°31'0 0.0
2018-Apr-11 23:31N 47°37' W 122°31'0 0.0
2018-Apr-11 23:01N 47°37' W 122°31'0 0.0
2018-Apr-11 22:31N 47°37' W 122°31'0 0.0
2018-Apr-11 22:01N 47°37' W 122°31'0 0.0
2018-Apr-11 21:30N 47°37' W 122°31'0 0.0
2018-Apr-11 21:00N 47°37' W 122°31'0 0.0
2018-Apr-11 20:30N 47°37' W 122°31'0 0.0
2018-Apr-11 20:00N 47°37' W 122°31'0 0.0
2018-Apr-11 19:31N 47°37' W 122°31'0 0.0
2018-Apr-11 19:00N 47°37' W 122°31'0 0.0
2018-Apr-11 18:30N 47°37' W 122°31'0 0.0
2018-Apr-11 18:00N 47°37' W 122°31'0 0.0
2018-Apr-11 17:30N 47°37' W 122°31'0 0.0
2018-Apr-11 17:00N 47°37' W 122°31'0 0.0
2018-Apr-11 16:30N 47°37' W 122°31'0 0.0
2018-Apr-11 16:00N 47°37' W 122°31'0 0.0
2018-Apr-11 15:30N 47°37' W 122°31'0 0.0
2018-Apr-11 15:00N 47°37' W 122°31'0 0.0
2018-Apr-11 14:30N 47°37' W 122°31'0 0.0
2018-Apr-11 14:00N 47°37' W 122°31'0 0.0
2018-Apr-11 13:30N 47°37' W 122°31'0 0.0
2018-Apr-11 13:00N 47°37' W 122°31'0 0.0
2018-Apr-11 12:30N 47°37' W 122°31'0 0.0
2018-Apr-11 12:00N 47°37' W 122°31'0 0.0
2018-Apr-11 11:31N 47°37' W 122°31'0 0.0
2018-Apr-11 11:00N 47°37' W 122°31'0 0.0
2018-Apr-11 10:30N 47°37' W 122°31'0 0.0
2018-Apr-11 10:00N 47°37' W 122°31'0 0.0
2018-Apr-11 09:30N 47°37' W 122°31'0 0.0
2018-Apr-11 09:00N 47°37' W 122°31'0 0.0
2018-Apr-11 08:30N 47°37' W 122°31'0 0.0
2018-Apr-11 08:00N 47°37' W 122°31'0 0.0
2018-Apr-11 07:30N 47°37' W 122°31'0 0.0
2018-Apr-11 07:00N 47°37' W 122°31'0 0.0
2018-Apr-11 06:30N 47°37' W 122°31'0 0.0
2018-Apr-11 06:01N 47°37' W 122°31'0 0.0
2018-Apr-11 05:30N 47°37' W 122°31'0 0.0
2018-Apr-11 05:00N 47°37' W 122°31'0 0.0
2018-Apr-11 04:30N 47°37' W 122°31'0 0.0
2018-Apr-11 04:00N 47°37' W 122°31'0 0.0
2018-Apr-11 03:30N 47°37' W 122°31'0 0.0
2018-Apr-11 03:00N 47°37' W 122°31'0 0.0
2018-Apr-11 02:30N 47°37' W 122°31'0 0.0
2018-Apr-11 02:00N 47°37' W 122°31'0 0.0
2018-Apr-11 01:31N 47°37' W 122°31'0 0.0
2018-Apr-11 01:00N 47°37' W 122°31'0 0.0
2018-Apr-11 00:30N 47°37' W 122°31'0 0.0
2018-Apr-11 00:00N 47°37' W 122°31'0 0.0
2018-Apr-10 23:31N 47°37' W 122°31'0 0.0
2018-Apr-10 23:00N 47°37' W 122°31'0 0.0
2018-Apr-10 22:30N 47°37' W 122°31'0 0.0
2018-Apr-10 22:01N 47°37' W 122°31'0 0.0
2018-Apr-10 21:30N 47°37' W 122°31'0 0.0
2018-Apr-10 21:01N 47°37' W 122°31'0 0.0
2018-Apr-10 20:30N 47°37' W 122°31'1 1.6
2018-Apr-10 20:00N 47°37' W 122°30'612.6
2018-Apr-10 19:30N 47°31' W 122°25'4 7.2
2018-Apr-10 19:00N 47°28' W 122°24'2 4.5
2018-Apr-10 18:30N 47°26' W 122°22'2 4.7
2018-Apr-10 18:00N 47°24' W 122°21'2 4.3
2018-Apr-10 17:30N 47°22' W 122°22'2 3.2
2018-Apr-10 17:00N 47°21' W 122°24'4 7.5
2018-Apr-10 16:30N 47°19' W 122°29'510.2
2018-Apr-10 16:01N 47°22' W 122°23'611.1
2018-Apr-10 15:30N 47°28' W 122°25'917.5
2018-Apr-10 15:01N 47°36' W 122°29'2 3.5
2018-Apr-10 14:30N 47°37' W 122°31'0 0.0
2018-Apr-10 14:00N 47°37' W 122°31'0 0.0
2018-Apr-10 13:30N 47°37' W 122°31'0 0.0
2018-Apr-10 13:00N 47°37' W 122°31'0 0.0
2018-Apr-10 12:30N 47°37' W 122°31'0 0.0
2018-Apr-10 12:00N 47°37' W 122°31'0 0.0
2018-Apr-10 11:30N 47°37' W 122°31'0 0.0
2018-Apr-10 11:00N 47°37' W 122°31'0 0.0
2018-Apr-10 10:30N 47°37' W 122°31'0 0.0
2018-Apr-10 10:00N 47°37' W 122°31'0 0.0
2018-Apr-10 09:30N 47°37' W 122°31'0 0.0
2018-Apr-10 09:00N 47°37' W 122°31'0 0.0
2018-Apr-10 08:30N 47°37' W 122°31'0 0.0
2018-Apr-10 08:00N 47°37' W 122°31'0 0.0
2018-Apr-10 07:30N 47°37' W 122°31'0 0.0
2018-Apr-10 07:00N 47°37' W 122°31'0 0.0
2018-Apr-10 06:30N 47°37' W 122°31'0 0.0
2018-Apr-10 06:00N 47°37' W 122°31'0 0.0
2018-Apr-10 05:30N 47°37' W 122°31'0 0.0
2018-Apr-10 05:00N 47°37' W 122°31'  

Dump ship's entire track history